sensor_id;sensor_type;location;lat;lon;timestamp;P1;durP1;ratioP1;P2;durP2;ratioP2
29916;SDS011;16786;49.466;11.068;2024-01-07T00:00:50;27.05;;;13.55;;
29916;SDS011;16786;49.466;11.068;2024-01-07T00:03:17;22.77;;;12.85;;
29916;SDS011;16786;49.466;11.068;2024-01-07T00:05:44;22.70;;;13.57;;
29916;SDS011;16786;49.466;11.068;2024-01-07T00:08:13;19.27;;;13.80;;
29916;SDS011;16786;49.466;11.068;2024-01-07T00:10:40;21.73;;;13.27;;
29916;SDS011;16786;49.466;11.068;2024-01-07T00:13:07;23.38;;;13.15;;
29916;SDS011;16786;49.466;11.068;2024-01-07T00:15:34;22.83;;;13.40;;
29916;SDS011;16786;49.466;11.068;2024-01-07T00:18:01;23.50;;;13.32;;
29916;SDS011;16786;49.466;11.068;2024-01-07T00:20:29;22.50;;;13.75;;
29916;SDS011;16786;49.466;11.068;2024-01-07T00:22:56;24.98;;;14.35;;
29916;SDS011;16786;49.466;11.068;2024-01-07T00:25:23;23.45;;;12.90;;
29916;SDS011;16786;49.466;11.068;2024-01-07T00:27:50;23.38;;;13.70;;
29916;SDS011;16786;49.466;11.068;2024-01-07T00:30:18;23.15;;;13.52;;
29916;SDS011;16786;49.466;11.068;2024-01-07T00:32:45;23.35;;;13.57;;
29916;SDS011;16786;49.466;11.068;2024-01-07T00:35:12;22.00;;;12.90;;
29916;SDS011;16786;49.466;11.068;2024-01-07T00:37:39;23.63;;;14.23;;
29916;SDS011;16786;49.466;11.068;2024-01-07T00:40:06;22.60;;;12.90;;
29916;SDS011;16786;49.466;11.068;2024-01-07T00:42:34;22.88;;;13.50;;
29916;SDS011;16786;49.466;11.068;2024-01-07T00:45:02;19.50;;;13.02;;
29916;SDS011;16786;49.466;11.068;2024-01-07T00:47:30;21.95;;;12.93;;
29916;SDS011;16786;49.466;11.068;2024-01-07T00:49:57;21.48;;;13.25;;
29916;SDS011;16786;49.466;11.068;2024-01-07T00:52:23;23.73;;;13.82;;
29916;SDS011;16786;49.466;11.068;2024-01-07T00:54:50;23.10;;;13.75;;
29916;SDS011;16786;49.466;11.068;2024-01-07T00:57:17;20.88;;;12.70;;
29916;SDS011;16786;49.466;11.068;2024-01-07T00:59:44;24.42;;;13.43;;
29916;SDS011;16786;49.466;11.068;2024-01-07T01:02:11;24.08;;;13.65;;
29916;SDS011;16786;49.466;11.068;2024-01-07T01:04:39;21.85;;;13.13;;
29916;SDS011;16786;49.466;11.068;2024-01-07T01:07:07;23.40;;;13.50;;
29916;SDS011;16786;49.466;11.068;2024-01-07T01:09:34;21.08;;;13.95;;
29916;SDS011;16786;49.466;11.068;2024-01-07T01:12:01;26.00;;;14.35;;
29916;SDS011;16786;49.466;11.068;2024-01-07T01:14:28;22.25;;;13.48;;
29916;SDS011;16786;49.466;11.068;2024-01-07T01:16:55;21.80;;;14.18;;
29916;SDS011;16786;49.466;11.068;2024-01-07T01:19:23;25.48;;;14.07;;
29916;SDS011;16786;49.466;11.068;2024-01-07T01:21:50;24.45;;;14.20;;
29916;SDS011;16786;49.466;11.068;2024-01-07T01:24:17;25.52;;;12.98;;
29916;SDS011;16786;49.466;11.068;2024-01-07T01:26:44;21.40;;;13.55;;
29916;SDS011;16786;49.466;11.068;2024-01-07T01:29:11;22.63;;;13.18;;
29916;SDS011;16786;49.466;11.068;2024-01-07T01:31:38;25.90;;;13.40;;
29916;SDS011;16786;49.466;11.068;2024-01-07T01:34:06;21.73;;;14.15;;
29916;SDS011;16786;49.466;11.068;2024-01-07T01:36:33;20.38;;;12.65;;
29916;SDS011;16786;49.466;11.068;2024-01-07T01:39:00;21.67;;;13.82;;
29916;SDS011;16786;49.466;11.068;2024-01-07T01:41:28;23.10;;;13.48;;
29916;SDS011;16786;49.466;11.068;2024-01-07T01:43:58;21.45;;;12.45;;
29916;SDS011;16786;49.466;11.068;2024-01-07T01:46:26;22.70;;;13.18;;
29916;SDS011;16786;49.466;11.068;2024-01-07T01:48:55;26.83;;;13.50;;
29916;SDS011;16786;49.466;11.068;2024-01-07T01:51:23;20.63;;;13.10;;
29916;SDS011;16786;49.466;11.068;2024-01-07T01:53:50;22.48;;;13.43;;
29916;SDS011;16786;49.466;11.068;2024-01-07T01:56:18;22.45;;;13.15;;
29916;SDS011;16786;49.466;11.068;2024-01-07T01:58:47;21.88;;;12.73;;
29916;SDS011;16786;49.466;11.068;2024-01-07T02:01:14;21.73;;;13.20;;
29916;SDS011;16786;49.466;11.068;2024-01-07T02:03:41;23.05;;;13.77;;
29916;SDS011;16786;49.466;11.068;2024-01-07T02:06:08;21.33;;;13.27;;
29916;SDS011;16786;49.466;11.068;2024-01-07T02:08:38;21.60;;;12.82;;
29916;SDS011;16786;49.466;11.068;2024-01-07T02:11:18;20.95;;;12.93;;
29916;SDS011;16786;49.466;11.068;2024-01-07T02:13:46;21.15;;;12.20;;
29916;SDS011;16786;49.466;11.068;2024-01-07T02:16:13;22.90;;;12.95;;
29916;SDS011;16786;49.466;11.068;2024-01-07T02:18:41;20.73;;;13.35;;
29916;SDS011;16786;49.466;11.068;2024-01-07T02:21:09;23.02;;;12.90;;
29916;SDS011;16786;49.466;11.068;2024-01-07T02:23:36;21.30;;;13.35;;
29916;SDS011;16786;49.466;11.068;2024-01-07T02:26:03;21.08;;;12.77;;
29916;SDS011;16786;49.466;11.068;2024-01-07T02:28:32;20.20;;;12.85;;
29916;SDS011;16786;49.466;11.068;2024-01-07T02:31:00;25.05;;;12.77;;
29916;SDS011;16786;49.466;11.068;2024-01-07T02:33:27;24.90;;;13.43;;
29916;SDS011;16786;49.466;11.068;2024-01-07T02:35:55;22.90;;;12.50;;
29916;SDS011;16786;49.466;11.068;2024-01-07T02:38:23;18.52;;;11.68;;
29916;SDS011;16786;49.466;11.068;2024-01-07T02:40:49;23.55;;;12.25;;
29916;SDS011;16786;49.466;11.068;2024-01-07T02:43:16;18.75;;;12.05;;
29916;SDS011;16786;49.466;11.068;2024-01-07T02:45:43;17.30;;;10.75;;
29916;SDS011;16786;49.466;11.068;2024-01-07T02:48:10;16.38;;;10.15;;
29916;SDS011;16786;49.466;11.068;2024-01-07T02:50:37;16.92;;;9.82;;
29916;SDS011;16786;49.466;11.068;2024-01-07T02:53:04;17.88;;;9.82;;
29916;SDS011;16786;49.466;11.068;2024-01-07T02:55:31;15.45;;;9.23;;
29916;SDS011;16786;49.466;11.068;2024-01-07T02:57:58;16.05;;;9.65;;
29916;SDS011;16786;49.466;11.068;2024-01-07T03:00:25;15.27;;;9.27;;
29916;SDS011;16786;49.466;11.068;2024-01-07T03:02:52;16.42;;;9.90;;
29916;SDS011;16786;49.466;11.068;2024-01-07T03:05:20;15.75;;;9.02;;
29916;SDS011;16786;49.466;11.068;2024-01-07T03:07:46;17.60;;;9.82;;
29916;SDS011;16786;49.466;11.068;2024-01-07T03:10:13;16.33;;;9.43;;
29916;SDS011;16786;49.466;11.068;2024-01-07T03:12:41;16.73;;;8.80;;
29916;SDS011;16786;49.466;11.068;2024-01-07T03:15:08;14.43;;;9.32;;
29916;SDS011;16786;49.466;11.068;2024-01-07T03:17:35;13.88;;;8.32;;
29916;SDS011;16786;49.466;11.068;2024-01-07T03:20:02;15.15;;;9.10;;
29916;SDS011;16786;49.466;11.068;2024-01-07T03:22:30;17.00;;;10.10;;
29916;SDS011;16786;49.466;11.068;2024-01-07T03:24:56;14.88;;;8.90;;
29916;SDS011;16786;49.466;11.068;2024-01-07T03:27:23;13.88;;;7.90;;
29916;SDS011;16786;49.466;11.068;2024-01-07T03:29:50;14.18;;;8.52;;
29916;SDS011;16786;49.466;11.068;2024-01-07T03:32:18;14.82;;;8.23;;
29916;SDS011;16786;49.466;11.068;2024-01-07T03:34:44;15.95;;;9.07;;
29916;SDS011;16786;49.466;11.068;2024-01-07T03:37:11;16.33;;;9.13;;
29916;SDS011;16786;49.466;11.068;2024-01-07T03:39:38;13.95;;;8.73;;
29916;SDS011;16786;49.466;11.068;2024-01-07T03:42:06;14.48;;;8.65;;
29916;SDS011;16786;49.466;11.068;2024-01-07T03:47:05;13.85;;;8.85;;
29916;SDS011;16786;49.466;11.068;2024-01-07T03:49:32;14.90;;;8.82;;
29916;SDS011;16786;49.466;11.068;2024-01-07T03:51:59;15.55;;;8.82;;
29916;SDS011;16786;49.466;11.068;2024-01-07T03:54:26;15.15;;;9.02;;
29916;SDS011;16786;49.466;11.068;2024-01-07T03:56:54;16.60;;;9.20;;
29916;SDS011;16786;49.466;11.068;2024-01-07T03:59:20;16.70;;;9.63;;
29916;SDS011;16786;49.466;11.068;2024-01-07T04:01:49;17.55;;;8.68;;
29916;SDS011;16786;49.466;11.068;2024-01-07T04:04:17;19.10;;;10.02;;
29916;SDS011;16786;49.466;11.068;2024-01-07T04:06:44;16.75;;;9.68;;
29916;SDS011;16786;49.466;11.068;2024-01-07T04:09:11;17.55;;;9.70;;
29916;SDS011;16786;49.466;11.068;2024-01-07T04:11:41;15.93;;;8.77;;
29916;SDS011;16786;49.466;11.068;2024-01-07T04:14:09;16.23;;;9.02;;
29916;SDS011;16786;49.466;11.068;2024-01-07T04:16:36;15.13;;;8.68;;
29916;SDS011;16786;49.466;11.068;2024-01-07T04:19:03;16.38;;;9.15;;
29916;SDS011;16786;49.466;11.068;2024-01-07T04:21:30;14.10;;;8.15;;
29916;SDS011;16786;49.466;11.068;2024-01-07T04:23:57;15.52;;;8.95;;
29916;SDS011;16786;49.466;11.068;2024-01-07T04:26:24;15.95;;;8.68;;
29916;SDS011;16786;49.466;11.068;2024-01-07T04:28:51;15.00;;;8.50;;
29916;SDS011;16786;49.466;11.068;2024-01-07T04:31:18;14.68;;;8.32;;
29916;SDS011;16786;49.466;11.068;2024-01-07T04:33:45;14.32;;;8.68;;
29916;SDS011;16786;49.466;11.068;2024-01-07T04:36:12;15.77;;;8.98;;
29916;SDS011;16786;49.466;11.068;2024-01-07T04:38:39;14.55;;;8.18;;
29916;SDS011;16786;49.466;11.068;2024-01-07T04:41:06;13.98;;;7.90;;
29916;SDS011;16786;49.466;11.068;2024-01-07T04:43:34;16.27;;;8.65;;
29916;SDS011;16786;49.466;11.068;2024-01-07T04:46:02;13.00;;;8.05;;
29916;SDS011;16786;49.466;11.068;2024-01-07T04:48:29;13.30;;;8.13;;
29916;SDS011;16786;49.466;11.068;2024-01-07T04:50:56;14.35;;;8.57;;
29916;SDS011;16786;49.466;11.068;2024-01-07T04:53:23;14.50;;;8.30;;
29916;SDS011;16786;49.466;11.068;2024-01-07T04:55:50;14.32;;;8.45;;
29916;SDS011;16786;49.466;11.068;2024-01-07T04:58:17;14.13;;;7.93;;
29916;SDS011;16786;49.466;11.068;2024-01-07T05:00:44;14.90;;;7.88;;
29916;SDS011;16786;49.466;11.068;2024-01-07T05:03:11;11.85;;;7.50;;
29916;SDS011;16786;49.466;11.068;2024-01-07T05:05:38;13.13;;;7.57;;
29916;SDS011;16786;49.466;11.068;2024-01-07T05:08:05;10.93;;;6.75;;
29916;SDS011;16786;49.466;11.068;2024-01-07T05:10:32;14.25;;;7.88;;
29916;SDS011;16786;49.466;11.068;2024-01-07T05:12:59;11.70;;;6.82;;
29916;SDS011;16786;49.466;11.068;2024-01-07T05:15:31;11.73;;;6.80;;
29916;SDS011;16786;49.466;11.068;2024-01-07T05:17:58;13.27;;;7.55;;
29916;SDS011;16786;49.466;11.068;2024-01-07T05:20:25;11.48;;;6.93;;
29916;SDS011;16786;49.466;11.068;2024-01-07T05:22:53;12.10;;;6.57;;
29916;SDS011;16786;49.466;11.068;2024-01-07T05:25:19;12.32;;;6.90;;
29916;SDS011;16786;49.466;11.068;2024-01-07T05:27:46;11.68;;;6.88;;
29916;SDS011;16786;49.466;11.068;2024-01-07T05:30:13;12.80;;;7.10;;
29916;SDS011;16786;49.466;11.068;2024-01-07T05:32:40;12.13;;;6.85;;
29916;SDS011;16786;49.466;11.068;2024-01-07T05:35:07;12.25;;;6.97;;
29916;SDS011;16786;49.466;11.068;2024-01-07T05:37:35;10.68;;;6.25;;
29916;SDS011;16786;49.466;11.068;2024-01-07T05:40:02;13.00;;;6.53;;
29916;SDS011;16786;49.466;11.068;2024-01-07T05:42:29;11.57;;;7.20;;
29916;SDS011;16786;49.466;11.068;2024-01-07T05:44:56;11.70;;;6.50;;
29916;SDS011;16786;49.466;11.068;2024-01-07T05:47:23;13.95;;;7.55;;
29916;SDS011;16786;49.466;11.068;2024-01-07T05:49:50;12.75;;;7.25;;
29916;SDS011;16786;49.466;11.068;2024-01-07T05:52:18;12.45;;;6.95;;
29916;SDS011;16786;49.466;11.068;2024-01-07T05:54:45;12.40;;;7.43;;
29916;SDS011;16786;49.466;11.068;2024-01-07T05:57:12;13.45;;;7.00;;
29916;SDS011;16786;49.466;11.068;2024-01-07T05:59:39;12.07;;;7.05;;
29916;SDS011;16786;49.466;11.068;2024-01-07T06:02:06;13.25;;;7.65;;
29916;SDS011;16786;49.466;11.068;2024-01-07T06:04:33;12.82;;;6.45;;
29916;SDS011;16786;49.466;11.068;2024-01-07T06:07:00;10.57;;;6.70;;
29916;SDS011;16786;49.466;11.068;2024-01-07T06:09:27;12.15;;;7.07;;
29916;SDS011;16786;49.466;11.068;2024-01-07T06:11:54;12.32;;;7.05;;
29916;SDS011;16786;49.466;11.068;2024-01-07T06:14:24;11.20;;;6.68;;
29916;SDS011;16786;49.466;11.068;2024-01-07T06:16:51;14.27;;;7.35;;
29916;SDS011;16786;49.466;11.068;2024-01-07T06:19:19;12.57;;;7.40;;
29916;SDS011;16786;49.466;11.068;2024-01-07T06:21:47;13.57;;;7.60;;
29916;SDS011;16786;49.466;11.068;2024-01-07T06:24:14;13.23;;;7.68;;
29916;SDS011;16786;49.466;11.068;2024-01-07T06:26:41;13.00;;;7.72;;
29916;SDS011;16786;49.466;11.068;2024-01-07T06:29:08;14.70;;;8.38;;
29916;SDS011;16786;49.466;11.068;2024-01-07T06:31:36;15.68;;;8.10;;
29916;SDS011;16786;49.466;11.068;2024-01-07T06:34:09;14.85;;;8.45;;
29916;SDS011;16786;49.466;11.068;2024-01-07T06:36:40;15.00;;;8.50;;
29916;SDS011;16786;49.466;11.068;2024-01-07T06:39:10;15.20;;;8.30;;
29916;SDS011;16786;49.466;11.068;2024-01-07T06:41:37;16.45;;;9.05;;
29916;SDS011;16786;49.466;11.068;2024-01-07T06:44:04;13.88;;;8.73;;
29916;SDS011;16786;49.466;11.068;2024-01-07T06:46:31;16.38;;;8.93;;
29916;SDS011;16786;49.466;11.068;2024-01-07T06:48:58;16.23;;;8.93;;
29916;SDS011;16786;49.466;11.068;2024-01-07T06:51:25;15.68;;;9.18;;
29916;SDS011;16786;49.466;11.068;2024-01-07T06:53:52;15.88;;;8.98;;
29916;SDS011;16786;49.466;11.068;2024-01-07T06:56:19;16.00;;;8.90;;
29916;SDS011;16786;49.466;11.068;2024-01-07T06:58:46;16.73;;;8.50;;
29916;SDS011;16786;49.466;11.068;2024-01-07T07:01:13;15.98;;;8.77;;
29916;SDS011;16786;49.466;11.068;2024-01-07T07:03:44;19.17;;;10.03;;
29916;SDS011;16786;49.466;11.068;2024-01-07T07:06:11;16.55;;;9.10;;
29916;SDS011;16786;49.466;11.068;2024-01-07T07:08:39;18.42;;;9.48;;
29916;SDS011;16786;49.466;11.068;2024-01-07T07:11:06;16.67;;;8.75;;
29916;SDS011;16786;49.466;11.068;2024-01-07T07:13:33;16.38;;;9.35;;
29916;SDS011;16786;49.466;11.068;2024-01-07T07:16:00;18.67;;;9.68;;
29916;SDS011;16786;49.466;11.068;2024-01-07T07:18:27;17.85;;;10.05;;
29916;SDS011;16786;49.466;11.068;2024-01-07T07:20:54;17.48;;;9.73;;
29916;SDS011;16786;49.466;11.068;2024-01-07T07:23:21;20.67;;;10.40;;
29916;SDS011;16786;49.466;11.068;2024-01-07T07:25:48;16.98;;;9.98;;
29916;SDS011;16786;49.466;11.068;2024-01-07T07:28:15;19.83;;;9.93;;
29916;SDS011;16786;49.466;11.068;2024-01-07T07:30:44;18.17;;;9.85;;
29916;SDS011;16786;49.466;11.068;2024-01-07T07:33:13;18.48;;;10.25;;
29916;SDS011;16786;49.466;11.068;2024-01-07T07:35:40;19.45;;;10.38;;
29916;SDS011;16786;49.466;11.068;2024-01-07T07:38:08;17.27;;;10.15;;
29916;SDS011;16786;49.466;11.068;2024-01-07T07:40:35;16.17;;;9.93;;
29916;SDS011;16786;49.466;11.068;2024-01-07T07:43:02;17.08;;;10.48;;
29916;SDS011;16786;49.466;11.068;2024-01-07T07:45:29;18.48;;;10.85;;
29916;SDS011;16786;49.466;11.068;2024-01-07T07:47:56;16.85;;;10.32;;
29916;SDS011;16786;49.466;11.068;2024-01-07T07:50:23;20.42;;;11.60;;
29916;SDS011;16786;49.466;11.068;2024-01-07T07:52:50;20.20;;;11.13;;
29916;SDS011;16786;49.466;11.068;2024-01-07T07:55:17;19.38;;;11.93;;
29916;SDS011;16786;49.466;11.068;2024-01-07T07:57:44;18.27;;;10.60;;
29916;SDS011;16786;49.466;11.068;2024-01-07T08:00:12;18.58;;;11.18;;
29916;SDS011;16786;49.466;11.068;2024-01-07T08:02:40;20.52;;;12.05;;
29916;SDS011;16786;49.466;11.068;2024-01-07T08:05:07;23.15;;;11.40;;
29916;SDS011;16786;49.466;11.068;2024-01-07T08:07:34;19.58;;;11.50;;
29916;SDS011;16786;49.466;11.068;2024-01-07T08:10:01;21.08;;;10.93;;
29916;SDS011;16786;49.466;11.068;2024-01-07T08:12:29;23.10;;;12.85;;
29916;SDS011;16786;49.466;11.068;2024-01-07T08:14:56;18.23;;;10.70;;
29916;SDS011;16786;49.466;11.068;2024-01-07T08:17:23;19.13;;;11.73;;
29916;SDS011;16786;49.466;11.068;2024-01-07T08:19:53;18.17;;;10.75;;
29916;SDS011;16786;49.466;11.068;2024-01-07T08:22:20;17.30;;;10.23;;
29916;SDS011;16786;49.466;11.068;2024-01-07T08:24:46;18.90;;;11.15;;
29916;SDS011;16786;49.466;11.068;2024-01-07T08:27:13;18.00;;;10.77;;
29916;SDS011;16786;49.466;11.068;2024-01-07T08:29:42;21.38;;;12.15;;
29916;SDS011;16786;49.466;11.068;2024-01-07T08:32:10;19.45;;;11.38;;
29916;SDS011;16786;49.466;11.068;2024-01-07T08:34:39;18.40;;;10.55;;
29916;SDS011;16786;49.466;11.068;2024-01-07T08:37:09;18.75;;;11.88;;
29916;SDS011;16786;49.466;11.068;2024-01-07T08:39:36;20.65;;;11.55;;
29916;SDS011;16786;49.466;11.068;2024-01-07T08:42:03;18.15;;;10.55;;
29916;SDS011;16786;49.466;11.068;2024-01-07T08:44:31;19.73;;;11.48;;
29916;SDS011;16786;49.466;11.068;2024-01-07T08:46:58;19.67;;;11.82;;
29916;SDS011;16786;49.466;11.068;2024-01-07T08:49:27;19.67;;;11.02;;
29916;SDS011;16786;49.466;11.068;2024-01-07T08:51:55;19.25;;;11.32;;
29916;SDS011;16786;49.466;11.068;2024-01-07T08:54:23;21.63;;;13.00;;
29916;SDS011;16786;49.466;11.068;2024-01-07T08:56:50;21.08;;;12.15;;
29916;SDS011;16786;49.466;11.068;2024-01-07T08:59:17;21.13;;;12.20;;
29916;SDS011;16786;49.466;11.068;2024-01-07T09:01:44;20.05;;;11.27;;
29916;SDS011;16786;49.466;11.068;2024-01-07T09:04:11;21.48;;;11.50;;
29916;SDS011;16786;49.466;11.068;2024-01-07T09:06:38;18.48;;;10.32;;
29916;SDS011;16786;49.466;11.068;2024-01-07T09:09:05;18.60;;;11.48;;
29916;SDS011;16786;49.466;11.068;2024-01-07T09:11:32;21.85;;;11.88;;
29916;SDS011;16786;49.466;11.068;2024-01-07T09:14:00;21.52;;;12.43;;
29916;SDS011;16786;49.466;11.068;2024-01-07T09:16:27;20.55;;;11.90;;
29916;SDS011;16786;49.466;11.068;2024-01-07T09:18:54;19.00;;;11.18;;
29916;SDS011;16786;49.466;11.068;2024-01-07T09:21:21;21.95;;;12.30;;
29916;SDS011;16786;49.466;11.068;2024-01-07T09:23:49;19.77;;;11.93;;
29916;SDS011;16786;49.466;11.068;2024-01-07T09:26:16;19.13;;;11.77;;
29916;SDS011;16786;49.466;11.068;2024-01-07T09:28:43;21.17;;;12.10;;
29916;SDS011;16786;49.466;11.068;2024-01-07T09:31:10;22.27;;;12.43;;
29916;SDS011;16786;49.466;11.068;2024-01-07T09:33:37;20.70;;;12.35;;
29916;SDS011;16786;49.466;11.068;2024-01-07T09:36:05;20.50;;;11.82;;
29916;SDS011;16786;49.466;11.068;2024-01-07T09:38:51;24.73;;;14.02;;
29916;SDS011;16786;49.466;11.068;2024-01-07T09:41:20;20.58;;;12.00;;
29916;SDS011;16786;49.466;11.068;2024-01-07T09:43:47;22.27;;;12.02;;
29916;SDS011;16786;49.466;11.068;2024-01-07T09:46:14;22.95;;;12.80;;
29916;SDS011;16786;49.466;11.068;2024-01-07T09:48:41;23.85;;;13.10;;
29916;SDS011;16786;49.466;11.068;2024-01-07T09:51:09;21.85;;;12.95;;
29916;SDS011;16786;49.466;11.068;2024-01-07T09:53:38;21.48;;;11.93;;
29916;SDS011;16786;49.466;11.068;2024-01-07T09:58:57;22.17;;;11.82;;
29916;SDS011;16786;49.466;11.068;2024-01-07T10:01:24;23.55;;;12.82;;
29916;SDS011;16786;49.466;11.068;2024-01-07T10:03:52;24.38;;;14.35;;
29916;SDS011;16786;49.466;11.068;2024-01-07T10:06:20;24.42;;;13.75;;
29916;SDS011;16786;49.466;11.068;2024-01-07T10:08:47;24.15;;;12.75;;
29916;SDS011;16786;49.466;11.068;2024-01-07T10:11:14;24.15;;;12.57;;
29916;SDS011;16786;49.466;11.068;2024-01-07T10:13:44;23.52;;;12.95;;
29916;SDS011;16786;49.466;11.068;2024-01-07T10:16:14;25.27;;;13.35;;
29916;SDS011;16786;49.466;11.068;2024-01-07T10:18:41;25.25;;;14.15;;
29916;SDS011;16786;49.466;11.068;2024-01-07T10:21:08;24.48;;;12.88;;
29916;SDS011;16786;49.466;11.068;2024-01-07T10:23:36;24.08;;;14.02;;
29916;SDS011;16786;49.466;11.068;2024-01-07T10:26:02;23.08;;;13.48;;
29916;SDS011;16786;49.466;11.068;2024-01-07T10:28:45;26.80;;;14.02;;
29916;SDS011;16786;49.466;11.068;2024-01-07T10:31:12;28.75;;;14.88;;
29916;SDS011;16786;49.466;11.068;2024-01-07T10:33:40;25.30;;;14.35;;
29916;SDS011;16786;49.466;11.068;2024-01-07T10:36:07;27.40;;;14.50;;
29916;SDS011;16786;49.466;11.068;2024-01-07T10:38:36;21.55;;;12.60;;
29916;SDS011;16786;49.466;11.068;2024-01-07T10:41:07;24.80;;;13.45;;
29916;SDS011;16786;49.466;11.068;2024-01-07T10:43:36;25.63;;;14.60;;
29916;SDS011;16786;49.466;11.068;2024-01-07T10:46:05;25.90;;;13.77;;
29916;SDS011;16786;49.466;11.068;2024-01-07T10:48:36;25.80;;;14.25;;
29916;SDS011;16786;49.466;11.068;2024-01-07T10:51:05;23.63;;;13.75;;
29916;SDS011;16786;49.466;11.068;2024-01-07T10:53:33;26.15;;;14.85;;
29916;SDS011;16786;49.466;11.068;2024-01-07T10:56:03;24.80;;;13.63;;
29916;SDS011;16786;49.466;11.068;2024-01-07T10:58:33;28.08;;;13.65;;
29916;SDS011;16786;49.466;11.068;2024-01-07T11:01:02;26.95;;;14.68;;
29916;SDS011;16786;49.466;11.068;2024-01-07T11:03:36;27.80;;;14.52;;
29916;SDS011;16786;49.466;11.068;2024-01-07T11:06:21;26.70;;;13.85;;
29916;SDS011;16786;49.466;11.068;2024-01-07T11:08:55;27.20;;;14.13;;
29916;SDS011;16786;49.466;11.068;2024-01-07T11:11:37;26.77;;;14.45;;
29916;SDS011;16786;49.466;11.068;2024-01-07T11:17:11;21.90;;;12.02;;
29916;SDS011;16786;49.466;11.068;2024-01-07T11:19:49;22.23;;;13.07;;
29916;SDS011;16786;49.466;11.068;2024-01-07T11:22:25;25.65;;;13.32;;
29916;SDS011;16786;49.466;11.068;2024-01-07T11:24:56;25.33;;;12.75;;
29916;SDS011;16786;49.466;11.068;2024-01-07T11:27:30;26.05;;;14.00;;
29916;SDS011;16786;49.466;11.068;2024-01-07T11:30:01;24.80;;;13.48;;
29916;SDS011;16786;49.466;11.068;2024-01-07T11:32:34;25.35;;;14.40;;
29916;SDS011;16786;49.466;11.068;2024-01-07T11:35:02;24.17;;;13.98;;
29916;SDS011;16786;49.466;11.068;2024-01-07T11:37:30;23.88;;;13.70;;
29916;SDS011;16786;49.466;11.068;2024-01-07T11:39:57;25.33;;;13.25;;
29916;SDS011;16786;49.466;11.068;2024-01-07T11:42:25;25.85;;;13.50;;
29916;SDS011;16786;49.466;11.068;2024-01-07T11:44:55;20.45;;;11.85;;
29916;SDS011;16786;49.466;11.068;2024-01-07T11:47:22;22.38;;;12.30;;
29916;SDS011;16786;49.466;11.068;2024-01-07T11:49:50;27.05;;;13.73;;
29916;SDS011;16786;49.466;11.068;2024-01-07T11:52:18;21.33;;;12.73;;
29916;SDS011;16786;49.466;11.068;2024-01-07T11:54:46;23.10;;;12.70;;
29916;SDS011;16786;49.466;11.068;2024-01-07T11:57:14;21.88;;;12.18;;
29916;SDS011;16786;49.466;11.068;2024-01-07T11:59:41;22.60;;;11.70;;
29916;SDS011;16786;49.466;11.068;2024-01-07T12:02:10;21.40;;;11.55;;
29916;SDS011;16786;49.466;11.068;2024-01-07T12:04:38;20.33;;;10.93;;
29916;SDS011;16786;49.466;11.068;2024-01-07T12:07:04;21.75;;;11.77;;
29916;SDS011;16786;49.466;11.068;2024-01-07T12:09:32;21.33;;;11.52;;
29916;SDS011;16786;49.466;11.068;2024-01-07T12:11:59;18.33;;;10.02;;
29916;SDS011;16786;49.466;11.068;2024-01-07T12:14:27;22.52;;;12.23;;
29916;SDS011;16786;49.466;11.068;2024-01-07T12:16:55;20.42;;;11.00;;
29916;SDS011;16786;49.466;11.068;2024-01-07T12:19:22;17.73;;;10.15;;
29916;SDS011;16786;49.466;11.068;2024-01-07T12:22:00;20.30;;;10.85;;
29916;SDS011;16786;49.466;11.068;2024-01-07T12:24:29;22.85;;;11.63;;
29916;SDS011;16786;49.466;11.068;2024-01-07T12:27:03;21.23;;;11.15;;
29916;SDS011;16786;49.466;11.068;2024-01-07T12:29:30;20.67;;;10.38;;
29916;SDS011;16786;49.466;11.068;2024-01-07T12:31:57;19.52;;;11.23;;
29916;SDS011;16786;49.466;11.068;2024-01-07T12:34:26;19.63;;;10.77;;
29916;SDS011;16786;49.466;11.068;2024-01-07T12:36:53;19.30;;;10.70;;
29916;SDS011;16786;49.466;11.068;2024-01-07T12:39:21;22.25;;;10.98;;
29916;SDS011;16786;49.466;11.068;2024-01-07T12:44:20;21.65;;;11.32;;
29916;SDS011;16786;49.466;11.068;2024-01-07T12:46:47;19.15;;;10.00;;
29916;SDS011;16786;49.466;11.068;2024-01-07T12:49:14;17.23;;;9.95;;
29916;SDS011;16786;49.466;11.068;2024-01-07T12:51:42;21.30;;;10.85;;
29916;SDS011;16786;49.466;11.068;2024-01-07T12:54:09;20.75;;;10.38;;
29916;SDS011;16786;49.466;11.068;2024-01-07T12:56:35;18.20;;;10.77;;
29916;SDS011;16786;49.466;11.068;2024-01-07T12:59:02;18.38;;;10.32;;
29916;SDS011;16786;49.466;11.068;2024-01-07T13:01:29;19.17;;;10.65;;
29916;SDS011;16786;49.466;11.068;2024-01-07T13:03:57;17.50;;;9.98;;
29916;SDS011;16786;49.466;11.068;2024-01-07T13:06:25;21.17;;;10.98;;
29916;SDS011;16786;49.466;11.068;2024-01-07T13:08:53;17.27;;;10.45;;
29916;SDS011;16786;49.466;11.068;2024-01-07T13:11:21;21.73;;;10.65;;
29916;SDS011;16786;49.466;11.068;2024-01-07T13:13:48;18.92;;;10.05;;
29916;SDS011;16786;49.466;11.068;2024-01-07T13:16:15;18.50;;;9.60;;
29916;SDS011;16786;49.466;11.068;2024-01-07T13:18:42;20.42;;;10.13;;
29916;SDS011;16786;49.466;11.068;2024-01-07T13:21:09;17.70;;;9.25;;
29916;SDS011;16786;49.466;11.068;2024-01-07T13:23:36;16.48;;;9.07;;
29916;SDS011;16786;49.466;11.068;2024-01-07T13:26:03;15.05;;;9.05;;
29916;SDS011;16786;49.466;11.068;2024-01-07T13:28:32;15.80;;;8.77;;
29916;SDS011;16786;49.466;11.068;2024-01-07T13:30:59;16.90;;;8.85;;
29916;SDS011;16786;49.466;11.068;2024-01-07T13:33:27;14.63;;;8.80;;
29916;SDS011;16786;49.466;11.068;2024-01-07T13:35:54;14.90;;;8.77;;
29916;SDS011;16786;49.466;11.068;2024-01-07T13:38:21;15.88;;;8.65;;
29916;SDS011;16786;49.466;11.068;2024-01-07T13:40:48;16.85;;;9.57;;
29916;SDS011;16786;49.466;11.068;2024-01-07T13:43:15;15.75;;;9.23;;
29916;SDS011;16786;49.466;11.068;2024-01-07T13:45:42;17.58;;;9.38;;
29916;SDS011;16786;49.466;11.068;2024-01-07T13:48:09;14.57;;;9.27;;
29916;SDS011;16786;49.466;11.068;2024-01-07T13:50:36;14.15;;;9.27;;
29916;SDS011;16786;49.466;11.068;2024-01-07T13:53:03;14.40;;;8.48;;
29916;SDS011;16786;49.466;11.068;2024-01-07T13:55:30;15.77;;;9.27;;
29916;SDS011;16786;49.466;11.068;2024-01-07T13:57:57;12.82;;;8.15;;
29916;SDS011;16786;49.466;11.068;2024-01-07T14:00:25;15.45;;;8.85;;
29916;SDS011;16786;49.466;11.068;2024-01-07T14:02:53;14.52;;;8.27;;
29916;SDS011;16786;49.466;11.068;2024-01-07T14:05:19;14.35;;;8.65;;
29916;SDS011;16786;49.466;11.068;2024-01-07T14:07:47;14.02;;;8.10;;
29916;SDS011;16786;49.466;11.068;2024-01-07T14:10:14;14.52;;;9.00;;
29916;SDS011;16786;49.466;11.068;2024-01-07T14:12:44;15.27;;;8.32;;
29916;SDS011;16786;49.466;11.068;2024-01-07T14:15:11;13.25;;;8.50;;
29916;SDS011;16786;49.466;11.068;2024-01-07T14:17:38;14.30;;;8.20;;
29916;SDS011;16786;49.466;11.068;2024-01-07T14:20:06;13.70;;;8.13;;
29916;SDS011;16786;49.466;11.068;2024-01-07T14:22:34;18.58;;;8.10;;
29916;SDS011;16786;49.466;11.068;2024-01-07T14:25:01;14.20;;;8.48;;
29916;SDS011;16786;49.466;11.068;2024-01-07T14:27:28;12.95;;;7.50;;